createdAt,value
2019-06-27T00:02:22.357Z,102872.91
2019-06-27T00:04:51.711Z,102874.30
2019-06-27T00:07:21.210Z,102871.43
2019-06-27T00:09:50.638Z,102864.05
2019-06-27T00:12:19.974Z,102865.53
2019-06-27T00:14:49.280Z,102869.55
2019-06-27T00:17:18.615Z,102865.67
2019-06-27T00:19:48.158Z,102861.31
2019-06-27T00:22:17.508Z,102855.62
2019-06-27T00:24:46.829Z,102853.53
2019-06-27T00:27:16.155Z,102854.48
2019-06-27T00:29:45.498Z,102848.25
2019-06-27T00:32:14.831Z,102849.57
2019-06-27T00:34:44.155Z,102846.56
2019-06-27T00:37:13.513Z,102841.42
2019-06-27T00:39:42.857Z,102841.02
2019-06-27T00:42:12.200Z,102841.12
2019-06-27T00:44:41.555Z,102837.06
2019-06-27T00:47:10.880Z,102831.78
2019-06-27T00:49:40.318Z,102831.78
2019-06-27T00:52:09.744Z,102831.78
2019-06-27T00:54:39.267Z,102831.38
2019-06-27T00:57:14.083Z,102832.39
2019-06-27T00:59:39.669Z,102825.02
2019-06-27T01:02:09.039Z,102827.66
2019-06-27T01:04:38.371Z,102825.88
2019-06-27T01:07:07.708Z,102824.09
2019-06-27T01:09:37.037Z,102821.91
2019-06-27T01:12:06.414Z,102817.23
2019-06-27T01:14:35.840Z,102818.80
2019-06-27T01:17:05.179Z,102819.41
2019-06-27T01:19:34.578Z,102824.84
2019-06-27T01:22:03.914Z,102815.28
2019-06-27T01:24:33.350Z,102811.88
2019-06-27T01:27:02.803Z,102812.34
2019-06-27T01:29:32.122Z,102815.12
2019-06-27T01:32:01.552Z,102814.01
2019-06-27T01:34:30.981Z,102807.64
2019-06-27T01:37:00.287Z,102810.42
2019-06-27T01:39:29.689Z,102810.95
2019-06-27T01:41:59.037Z,102804.03
2019-06-27T01:44:45.950Z,102806.76
2019-06-27T01:47:15.260Z,102798.53
2019-06-27T01:49:44.581Z,102807.45
2019-06-27T01:52:14.052Z,102801.31
2019-06-27T01:54:43.372Z,102804.56
2019-06-27T01:57:12.791Z,102804.24
2019-06-27T01:59:42.144Z,102807.02
2019-06-27T02:02:11.780Z,102805.02
2019-06-27T02:04:41.130Z,102802.58
2019-06-27T02:07:10.476Z,102807.23
2019-06-27T02:09:40.916Z,102806.05
2019-06-27T02:12:10.262Z,102810.15
2019-06-27T02:14:39.713Z,102815.61
2019-06-27T02:17:10.883Z,102814.80
2019-06-27T02:19:40.202Z,102813.11
2019-06-27T02:22:09.548Z,102817.20
2019-06-27T02:24:38.886Z,102811.98
2019-06-27T02:27:08.312Z,102807.65
2019-06-27T02:29:39.445Z,102811.61
2019-06-27T02:32:08.797Z,102811.20
2019-06-27T02:34:38.167Z,102808.65
2019-06-27T02:37:07.518Z,102807.79
2019-06-27T02:39:36.841Z,102810.48
2019-06-27T02:42:06.186Z,102811.34
2019-06-27T02:44:35.508Z,102821.03
2019-06-27T02:47:04.849Z,102814.92
2019-06-27T02:49:34.230Z,102818.02
2019-06-27T02:52:03.548Z,102816.30
2019-06-27T02:54:32.890Z,102807.98
2019-06-27T02:57:02.581Z,102810.25
2019-06-27T02:59:31.952Z,102808.52
2019-06-27T03:02:01.409Z,102815.58
2019-06-27T03:04:30.737Z,102814.34
2019-06-27T03:07:00.160Z,102809.61
2019-06-27T03:09:29.617Z,102800.43
2019-06-27T03:12:00.480Z,102798.74
2019-06-27T03:14:30.155Z,102798.34
2019-06-27T03:16:59.517Z,102804.16
2019-06-27T03:19:28.846Z,102802.89
2019-06-27T03:21:58.269Z,102802.52
2019-06-27T03:24:29.420Z,102803.88
2019-06-27T03:26:58.886Z,102803.97
2019-06-27T03:29:28.205Z,102804.88
2019-06-27T03:31:57.549Z,102802.33
2019-06-27T03:34:26.885Z,102803.33
2019-06-27T03:36:56.224Z,102810.84
2019-06-27T03:39:25.540Z,102805.61
2019-06-27T03:41:54.878Z,102802.63
2019-06-27T03:44:24.244Z,102804.89
2019-06-27T03:46:53.602Z,102797.89
2019-06-27T03:49:22.949Z,102800.20
2019-06-27T03:51:52.238Z,102794.61
2019-06-27T03:54:21.584Z,102790.66
2019-06-27T03:56:50.893Z,102791.44
2019-06-27T03:59:20.241Z,102791.52
2019-06-27T04:01:49.627Z,102792.89
2019-06-27T04:04:19.061Z,102802.20
2019-06-27T04:06:48.441Z,102802.28
2019-06-27T04:09:17.852Z,102813.28
2019-06-27T04:11:47.351Z,102817.24
2019-06-27T04:14:16.720Z,102809.84
2019-06-27T04:16:49.229Z,102812.97
2019-06-27T04:19:17.251Z,102808.60
2019-06-27T04:21:46.540Z,102808.28
2019-06-27T04:24:17.334Z,102816.64
2019-06-27T04:26:46.669Z,102804.00
2019-06-27T04:29:32.705Z,102811.96
2019-06-27T04:31:47.154Z,102805.45
2019-06-27T04:34:19.788Z,102807.69
2019-06-27T04:36:47.552Z,102801.05
2019-06-27T04:39:16.956Z,102802.81
2019-06-27T04:41:46.408Z,102801.09
2019-06-27T04:44:15.736Z,102793.19
2019-06-27T04:46:45.066Z,102798.45
2019-06-27T04:49:14.417Z,102800.27
2019-06-27T04:51:43.747Z,102809.48
2019-06-27T04:54:13.085Z,102806.05
2019-06-27T04:56:42.388Z,102814.81
2019-06-27T04:59:11.703Z,102803.03
2019-06-27T05:01:41.065Z,102802.17
2019-06-27T05:04:10.393Z,102797.36
2019-06-27T05:06:39.725Z,102793.80
2019-06-27T05:09:09.148Z,102792.00
2019-06-27T05:11:39.905Z,102793.73
2019-06-27T05:14:09.223Z,102791.09
2019-06-27T05:16:38.638Z,102794.45
2019-06-27T05:19:09.531Z,102796.55
2019-06-27T05:21:38.966Z,102789.50
2019-06-27T05:24:08.330Z,102787.19
2019-06-27T05:26:37.833Z,102792.33
2019-06-27T05:29:07.121Z,102788.30
2019-06-27T05:31:36.550Z,102793.42
2019-06-27T05:34:05.968Z,102802.11
2019-06-27T05:36:36.726Z,102801.61
2019-06-27T05:39:06.872Z,102799.30
2019-06-27T05:41:36.259Z,102803.57
2019-06-27T05:44:05.730Z,102803.03
2019-06-27T05:46:35.146Z,102798.11
2019-06-27T05:49:04.495Z,102800.16
2019-06-27T05:51:33.834Z,102803.56
2019-06-27T05:54:03.141Z,102801.25
2019-06-27T05:56:32.489Z,102801.11
2019-06-27T05:59:01.806Z,102801.52
2019-06-27T06:01:31.152Z,102803.53
2019-06-27T06:04:00.603Z,102802.53
2019-06-27T06:06:29.959Z,102802.87
2019-06-27T06:08:59.267Z,102797.06
2019-06-27T06:11:28.780Z,102804.38
2019-06-27T06:14:00.925Z,102802.05
2019-06-27T06:16:30.504Z,102804.52
2019-06-27T06:18:59.801Z,102804.38
2019-06-27T06:21:29.238Z,102805.56
2019-06-27T06:23:59.626Z,102809.37
2019-06-27T06:26:28.958Z,102807.00
2019-06-27T06:28:58.285Z,102805.54
2019-06-27T06:31:27.607Z,102807.09
2019-06-27T06:33:56.968Z,102814.31
2019-06-27T06:36:26.258Z,102817.67
2019-06-27T06:38:55.642Z,102817.07
2019-06-27T06:41:25.183Z,102819.53
2019-06-27T06:43:54.623Z,102814.97
2019-06-27T06:46:24.497Z,102817.92
2019-06-27T06:48:53.832Z,102818.33
2019-06-27T06:51:24.337Z,102819.50
2019-06-27T06:53:53.685Z,102810.63
2019-06-27T06:56:23.058Z,102830.84
2019-06-27T06:58:52.393Z,102820.19
2019-06-27T07:01:21.749Z,102826.73
2019-06-27T07:03:51.197Z,102822.68
2019-06-27T07:06:20.678Z,102818.72
2019-06-27T07:08:50.026Z,102815.56
2019-06-27T07:11:19.364Z,102806.55
2019-06-27T07:13:48.676Z,102814.78
2019-06-27T07:16:18.028Z,102810.30
2019-06-27T07:18:49.977Z,102808.46
2019-06-27T07:21:19.484Z,102806.44
2019-06-27T07:23:48.853Z,102802.80
2019-06-27T07:26:21.916Z,102800.45
2019-06-27T07:28:49.265Z,102796.25
2019-06-27T07:31:18.704Z,102791.28
2019-06-27T07:33:48.033Z,102791.53
2019-06-27T07:36:17.390Z,102801.95
2019-06-27T07:38:47.414Z,102802.10
2019-06-27T07:41:16.950Z,102815.16
2019-06-27T07:43:52.274Z,102807.55
2019-06-27T07:46:25.603Z,102807.75
2019-06-27T07:48:52.713Z,102798.35
2019-06-27T07:51:22.050Z,102801.23
2019-06-27T07:53:51.446Z,102807.14
2019-06-27T07:56:22.490Z,102795.09
2019-06-27T07:58:51.837Z,102790.88
2019-06-27T08:01:34.502Z,102788.84
2019-06-27T08:03:52.264Z,102796.52
2019-06-27T08:06:21.608Z,102782.21
2019-06-27T08:08:50.972Z,102792.47
2019-06-27T08:11:20.315Z,102795.78
2019-06-27T08:13:49.728Z,102790.27
2019-06-27T08:16:19.110Z,102790.91
2019-06-27T08:18:48.605Z,102786.31
2019-06-27T08:21:17.887Z,102791.91
2019-06-27T08:23:47.207Z,102777.19
2019-06-27T08:26:16.546Z,102791.95
2019-06-27T08:28:45.866Z,102779.88
2019-06-27T08:31:16.970Z,102781.03
2019-06-27T08:33:46.335Z,102787.48
2019-06-27T08:36:15.685Z,102777.56
2019-06-27T08:38:45.014Z,102782.23
2019-06-27T08:41:14.347Z,102774.06
2019-06-27T08:43:43.739Z,102772.83
2019-06-27T08:46:13.047Z,102768.23
2019-06-27T08:48:42.359Z,102775.44
2019-06-27T08:51:11.723Z,102775.10
2019-06-27T08:53:41.041Z,102769.17
2019-06-27T08:56:10.373Z,102774.12
2019-06-27T08:58:39.820Z,102762.41
2019-06-27T09:01:09.180Z,102771.40
2019-06-27T09:03:38.523Z,102769.84
2019-06-27T09:06:07.877Z,102763.80
2019-06-27T09:08:37.197Z,102765.34
2019-06-27T09:11:06.554Z,102769.14
2019-06-27T09:13:35.905Z,102764.06
2019-06-27T09:16:05.244Z,102759.91
2019-06-27T09:18:34.576Z,102763.61
2019-06-27T09:21:03.932Z,102764.66
2019-06-27T09:23:33.270Z,102756.92
2019-06-27T09:26:02.598Z,102753.23
2019-06-27T09:28:31.948Z,102765.45
2019-06-27T09:31:01.257Z,102766.59
2019-06-27T09:33:30.570Z,102777.02
2019-06-27T09:35:59.961Z,102779.49
2019-06-27T09:38:29.281Z,102782.89
2019-06-27T09:40:58.626Z,102776.45
2019-06-27T09:43:27.964Z,102778.92
2019-06-27T09:45:57.327Z,102775.16
2019-06-27T09:48:26.767Z,102778.28
2019-06-27T09:50:56.086Z,102770.43
2019-06-27T09:53:25.420Z,102764.94
2019-06-27T09:55:54.848Z,102757.77
2019-06-27T09:58:26.127Z,102760.13
2019-06-27T10:00:55.469Z,102771.70
2019-06-27T10:03:24.801Z,102766.60
2019-06-27T10:05:54.144Z,102766.81
2019-06-27T10:08:23.480Z,102765.19
2019-06-27T10:10:54.366Z,102768.05
2019-06-27T10:13:23.717Z,102770.88
2019-06-27T10:15:53.027Z,102771.91
2019-06-27T10:18:22.359Z,102769.92
2019-06-27T10:20:51.716Z,102750.77
2019-06-27T10:23:21.054Z,102745.66
2019-06-27T10:25:51.504Z,102744.51
2019-06-27T10:28:20.824Z,102742.80
2019-06-27T10:30:50.140Z,102735.86
2019-06-27T10:33:19.499Z,102725.33
2019-06-27T10:35:48.813Z,102703.34
2019-06-27T10:38:18.161Z,102699.92
2019-06-27T10:40:47.531Z,102687.07
2019-06-27T10:43:16.890Z,102685.82
2019-06-27T10:45:46.327Z,102691.70
2019-06-27T10:48:15.793Z,102694.44
2019-06-27T10:50:46.608Z,102698.02
2019-06-27T10:53:16.139Z,102683.09
2019-06-27T10:55:45.490Z,102682.42
2019-06-27T10:58:14.813Z,102682.14
2019-06-27T11:00:44.212Z,102674.32
2019-06-27T11:03:15.883Z,102680.91
2019-06-27T11:05:44.633Z,102683.16
2019-06-27T11:08:14.002Z,102675.16
2019-06-27T11:10:43.441Z,102665.80
2019-06-27T11:13:12.758Z,102664.73
2019-06-27T11:15:42.090Z,102664.91
2019-06-27T11:18:11.419Z,102660.59
2019-06-27T11:20:40.729Z,102646.63
2019-06-27T11:23:10.072Z,102650.41
2019-06-27T11:25:39.396Z,102635.95
2019-06-27T11:28:10.294Z,102643.72
2019-06-27T11:30:39.836Z,102644.72
2019-06-27T11:33:09.304Z,102647.33
2019-06-27T11:35:38.634Z,102641.47
2019-06-27T11:38:07.953Z,102640.82
2019-06-27T11:40:37.301Z,102627.91
2019-06-27T11:43:06.621Z,102636.19
2019-06-27T11:45:35.968Z,102628.62
2019-06-27T11:48:05.279Z,102620.55
2019-06-27T11:50:34.594Z,102621.32
2019-06-27T11:53:03.954Z,102634.69
2019-06-27T11:55:33.392Z,102621.80
2019-06-27T11:58:03.814Z,102621.70
2019-06-27T12:00:33.265Z,102603.00
2019-06-27T12:03:02.554Z,102593.11
2019-06-27T12:05:31.916Z,102585.28
2019-06-27T12:08:01.275Z,102576.98
2019-06-27T12:10:30.736Z,102555.97
2019-06-27T12:13:01.581Z,102542.03
2019-06-27T12:15:31.003Z,102535.72
2019-06-27T12:18:00.498Z,102528.44
2019-06-27T12:20:29.866Z,102525.89
2019-06-27T12:22:59.201Z,102513.03
2019-06-27T12:25:28.519Z,102512.86
2019-06-27T12:27:57.873Z,102508.97
2019-06-27T12:30:28.418Z,102499.36
2019-06-27T12:32:57.720Z,102495.19
2019-06-27T12:35:27.075Z,102484.23
2019-06-27T12:37:56.398Z,102479.72
2019-06-27T12:40:25.936Z,102481.25
2019-06-27T12:42:55.296Z,102477.92
2019-06-27T12:45:24.707Z,102477.74
2019-06-27T12:47:54.050Z,102469.43
2019-06-27T12:50:23.389Z,102474.55
2019-06-27T12:52:52.730Z,102468.30
2019-06-27T12:55:22.254Z,102468.18
2019-06-27T12:57:51.589Z,102451.48
2019-06-27T13:00:21.197Z,102444.53
2019-06-27T13:02:50.540Z,102443.72
2019-06-27T13:05:20.744Z,102433.18
2019-06-27T13:07:50.361Z,102430.88
2019-06-27T13:10:21.299Z,102426.94
2019-06-27T13:12:50.662Z,102429.45
2019-06-27T13:15:20.100Z,102419.42
2019-06-27T13:17:49.450Z,102414.48
2019-06-27T13:20:19.107Z,102407.14
2019-06-27T13:22:48.444Z,102395.94
2019-06-27T13:25:17.794Z,102386.23
2019-06-27T13:27:47.157Z,102379.52
2019-06-27T13:30:16.561Z,102379.16
2019-06-27T13:32:45.912Z,102367.77
2019-06-27T13:35:15.234Z,102368.35
2019-06-27T13:37:44.652Z,102367.20
2019-06-27T13:40:14.418Z,102366.94
2019-06-27T13:42:43.757Z,102365.87
2019-06-27T13:45:13.432Z,102349.86
2019-06-27T13:47:42.749Z,102355.50
2019-06-27T13:50:12.304Z,102363.52
2019-06-27T13:52:41.645Z,102359.46
2019-06-27T13:55:13.019Z,102359.72
2019-06-27T13:57:42.383Z,102354.59
2019-06-27T14:00:12.237Z,102346.91
2019-06-27T14:02:41.668Z,102332.69
2019-06-27T14:05:11.317Z,102336.09
2019-06-27T14:07:40.652Z,102333.78
2019-06-27T14:10:10.294Z,102325.45
2019-06-27T14:12:39.654Z,102331.57
2019-06-27T14:15:30.157Z,102315.09
2019-06-27T14:17:59.501Z,102310.08
2019-06-27T14:20:28.841Z,102306.72
2019-06-27T14:22:58.197Z,102288.45
2019-06-27T14:25:27.505Z,102294.04
2019-06-27T14:27:56.832Z,102293.37
2019-06-27T14:30:27.470Z,102290.50
2019-06-27T14:32:56.904Z,102294.39
2019-06-27T14:35:26.270Z,102291.39
2019-06-27T14:37:55.578Z,102288.88
2019-06-27T14:40:24.899Z,102284.55
2019-06-27T14:42:54.256Z,102287.59
2019-06-27T14:45:25.042Z,102286.27
2019-06-27T14:47:54.493Z,102271.98
2019-06-27T14:50:23.795Z,102265.98
2019-06-27T14:52:53.193Z,102262.29
2019-06-27T14:55:23.081Z,102252.72
2019-06-27T14:57:52.460Z,102252.41
2019-06-27T15:00:23.518Z,102242.84
2019-06-27T15:02:55.745Z,102237.77
2019-06-27T15:05:32.437Z,102235.09
2019-06-27T15:07:56.150Z,102227.34
2019-06-27T15:10:25.599Z,102228.17
2019-06-27T15:12:57.699Z,102223.97
2019-06-27T15:15:27.230Z,102223.13
2019-06-27T15:17:56.722Z,102219.27
2019-06-27T15:20:26.062Z,102224.14
2019-06-27T15:22:55.521Z,102228.02
2019-06-27T15:25:28.244Z,102225.66
2019-06-27T15:27:56.049Z,102218.29
2019-06-27T15:30:25.370Z,102211.88
2019-06-27T15:32:55.041Z,102205.51
2019-06-27T15:35:24.366Z,102210.55
2019-06-27T15:37:54.761Z,102206.00
2019-06-27T15:40:24.624Z,102207.70
2019-06-27T15:42:54.614Z,102197.58
2019-06-27T15:45:24.787Z,102198.94
2019-06-27T15:47:54.249Z,102198.28
2019-06-27T15:50:23.567Z,102209.54
2019-06-27T15:52:52.890Z,102201.12
2019-06-27T15:55:22.257Z,102188.67
2019-06-27T15:57:51.690Z,102179.94
2019-06-27T16:00:22.560Z,102183.45
2019-06-27T16:02:53.684Z,102178.56
2019-06-27T16:05:23.162Z,102176.70
2019-06-27T16:07:52.577Z,102167.75
2019-06-27T16:10:22.207Z,102160.48
2019-06-27T16:12:51.560Z,102148.71
2019-06-27T16:15:20.978Z,102151.72
2019-06-27T16:17:50.388Z,102154.57
2019-06-27T16:20:20.009Z,102138.78
2019-06-27T16:22:49.323Z,102137.78
2019-06-27T16:25:18.877Z,102144.64
2019-06-27T16:27:48.232Z,102139.44
2019-06-27T16:30:18.098Z,102138.41
2019-06-27T16:32:47.484Z,102128.01
2019-06-27T16:35:17.413Z,102118.55
2019-06-27T16:37:46.742Z,102123.27
2019-06-27T16:40:18.201Z,102121.23
2019-06-27T16:42:47.536Z,102113.81
2019-06-27T16:45:18.784Z,102110.56
2019-06-27T16:47:48.117Z,102113.56
2019-06-27T16:50:18.230Z,102108.32
2019-06-27T16:52:47.540Z,102107.42
2019-06-27T16:55:17.055Z,102107.22
2019-06-27T16:57:46.378Z,102101.13
2019-06-27T17:00:16.031Z,102105.67
2019-06-27T17:02:45.461Z,102091.69
2019-06-27T17:05:14.997Z,102089.50
2019-06-27T17:07:44.339Z,102096.36
2019-06-27T17:10:13.954Z,102098.63
2019-06-27T17:12:44.716Z,102095.59
2019-06-27T17:15:14.520Z,102091.39
2019-06-27T17:17:43.981Z,102092.90
2019-06-27T17:20:13.300Z,102089.53
2019-06-27T17:22:42.748Z,102103.89
2019-06-27T17:25:12.182Z,102102.80
2019-06-27T17:27:41.497Z,102094.09
2019-06-27T17:30:13.331Z,102096.50
2019-06-27T17:32:42.660Z,102098.30
2019-06-27T17:35:13.402Z,102095.16
2019-06-27T17:37:42.776Z,102095.23
2019-06-27T17:40:13.112Z,102093.28
2019-06-27T17:42:42.589Z,102092.14
2019-06-27T17:45:12.352Z,102089.98
2019-06-27T17:47:41.677Z,102088.48
2019-06-27T17:50:11.909Z,102076.41
2019-06-27T17:52:41.535Z,102083.44
2019-06-27T17:55:11.501Z,102086.28
2019-06-27T17:57:40.887Z,102088.78
2019-06-27T18:00:11.266Z,102087.44
2019-06-27T18:02:40.654Z,102091.78
2019-06-27T18:05:11.789Z,102084.67
2019-06-27T18:07:41.294Z,102092.36
2019-06-27T18:10:11.632Z,102081.59
2019-06-27T18:12:42.593Z,102087.78
2019-06-27T18:15:13.654Z,102088.75
2019-06-27T18:17:43.017Z,102097.93
2019-06-27T18:20:15.545Z,102103.93
2019-06-27T18:22:44.887Z,102098.17
2019-06-27T18:25:14.276Z,102106.86
2019-06-27T18:27:43.661Z,102112.04
2019-06-27T18:30:14.628Z,102108.78
2019-06-27T18:32:44.142Z,102108.91
2019-06-27T18:35:13.654Z,102110.06
2019-06-27T18:37:43.038Z,102103.98
2019-06-27T18:40:12.835Z,102106.96
2019-06-27T18:42:42.300Z,102105.20
2019-06-27T18:45:12.071Z,102103.41
2019-06-27T18:47:41.439Z,102116.27
2019-06-27T18:50:11.475Z,102113.02
2019-06-27T18:52:40.812Z,102115.33
2019-06-27T18:55:10.367Z,102114.42
2019-06-27T18:57:39.690Z,102122.75
2019-06-27T19:00:09.609Z,102119.50
2019-06-27T19:02:38.933Z,102118.27
2019-06-27T19:05:08.581Z,102121.06
2019-06-27T19:07:45.392Z,102118.95
2019-06-27T19:10:10.505Z,102120.39
2019-06-27T19:12:39.916Z,102122.69
2019-06-27T19:15:10.107Z,102118.09
2019-06-27T19:17:40.536Z,102116.98
2019-06-27T19:20:41.035Z,102108.37
2019-06-27T19:23:28.253Z,102103.28
2019-06-27T19:25:59.732Z,102104.33
2019-06-27T19:28:29.058Z,102096.94
2019-06-27T19:30:58.394Z,102092.14
2019-06-27T19:33:27.733Z,102098.84
2019-06-27T19:35:57.215Z,102103.20
2019-06-27T19:38:26.541Z,102108.23
2019-06-27T19:40:55.861Z,102110.70
2019-06-27T19:43:28.181Z,102111.55
2019-06-27T19:45:56.260Z,102114.38
2019-06-27T19:48:25.613Z,102105.50
2019-06-27T19:50:54.973Z,102110.71
2019-06-27T19:53:24.276Z,102115.31
2019-06-27T19:55:53.829Z,102119.88
2019-06-27T19:58:23.140Z,102122.89
2019-06-27T20:00:52.592Z,102127.02
2019-06-27T20:03:21.943Z,102123.20
2019-06-27T20:05:51.301Z,102121.19
2019-06-27T20:08:20.644Z,102127.23
2019-06-27T20:10:49.962Z,102126.73
2019-06-27T20:13:19.299Z,102125.09
2019-06-27T20:15:48.629Z,102121.63
2019-06-27T20:18:18.105Z,102130.16
2019-06-27T20:20:47.454Z,102124.17
2019-06-27T20:23:16.786Z,102133.71
2019-06-27T20:25:46.146Z,102140.05
2019-06-27T20:28:15.513Z,102130.25
2019-06-27T20:30:44.908Z,102127.77
2019-06-27T20:33:14.221Z,102122.97
2019-06-27T20:35:43.716Z,102130.16
2019-06-27T20:38:13.674Z,102117.49
2019-06-27T20:40:43.009Z,102116.68
2019-06-27T20:43:12.322Z,102116.34
2019-06-27T20:45:41.667Z,102121.86
2019-06-27T20:48:10.997Z,102118.89
2019-06-27T20:50:40.592Z,102116.26
2019-06-27T20:53:09.907Z,102110.95
2019-06-27T20:55:39.243Z,102115.30
2019-06-27T20:58:08.589Z,102114.84
2019-06-27T21:00:37.911Z,102107.87
2019-06-27T21:03:07.252Z,102108.71
2019-06-27T21:05:36.628Z,102109.48
2019-06-27T21:08:05.928Z,102113.73
2019-06-27T21:10:35.273Z,102115.56
2019-06-27T21:13:04.661Z,102118.95
2019-06-27T21:15:35.837Z,102122.38
2019-06-27T21:18:05.274Z,102124.55
2019-06-27T21:20:34.914Z,102131.12
2019-06-27T21:23:04.448Z,102129.08
2019-06-27T21:25:34.111Z,102131.61
2019-06-27T21:28:03.705Z,102134.52
2019-06-27T21:30:33.342Z,102140.09
2019-06-27T21:33:02.885Z,102135.05
2019-06-27T21:35:32.193Z,102142.42
2019-06-27T21:38:01.526Z,102150.52
2019-06-27T21:40:30.886Z,102152.58
2019-06-27T21:43:00.202Z,102162.98
2019-06-27T21:45:29.524Z,102174.72
2019-06-27T21:47:58.852Z,102173.63
2019-06-27T21:50:28.304Z,102181.01
2019-06-27T21:52:57.629Z,102181.86
2019-06-27T21:55:26.973Z,102188.28
2019-06-27T21:57:59.836Z,102196.98
2019-06-27T22:00:27.795Z,102203.86
2019-06-27T22:02:58.822Z,102196.98
2019-06-27T22:05:28.300Z,102198.06
2019-06-27T22:07:57.672Z,102203.25
2019-06-27T22:10:26.992Z,102214.50
2019-06-27T22:12:56.742Z,102216.06
2019-06-27T22:15:27.080Z,102212.31
2019-06-27T22:17:56.487Z,102223.70
2019-06-27T22:20:25.925Z,102224.65
2019-06-27T22:22:56.755Z,102225.02
2019-06-27T22:25:39.270Z,102232.75
2019-06-27T22:27:57.152Z,102231.17
2019-06-27T22:30:26.711Z,102224.39
2019-06-27T22:32:56.117Z,102231.27
2019-06-27T22:35:25.437Z,102231.02
2019-06-27T22:38:12.762Z,102224.73
2019-06-27T22:40:59.722Z,102227.59
2019-06-27T22:43:46.836Z,102221.41
2019-06-27T22:46:34.309Z,102216.80
2019-06-27T22:49:02.836Z,102224.53
2019-06-27T22:51:48.988Z,102217.39
2019-06-27T22:54:18.542Z,102213.29
2019-06-27T22:56:47.957Z,102213.52
2019-06-27T22:59:19.111Z,102209.38
2019-06-27T23:01:48.521Z,102201.06
2019-06-27T23:04:17.821Z,102196.08
2019-06-27T23:06:47.348Z,102203.80
2019-06-27T23:09:16.796Z,102199.70
2019-06-27T23:11:46.242Z,102196.32
2019-06-27T23:14:15.586Z,102193.03
2019-06-27T23:16:44.920Z,102189.28
2019-06-27T23:19:14.237Z,102191.21
2019-06-27T23:21:43.574Z,102191.44
2019-06-27T23:24:12.910Z,102187.20
2019-06-27T23:26:42.233Z,102182.84
2019-06-27T23:29:11.578Z,102179.46
2019-06-27T23:31:41.076Z,102171.24
2019-06-27T23:34:10.417Z,102165.69
2019-06-27T23:36:39.812Z,102160.94
2019-06-27T23:39:09.120Z,102162.53
2019-06-27T23:41:38.485Z,102156.46
2019-06-27T23:44:07.859Z,102155.02
2019-06-27T23:46:41.733Z,102155.48
2019-06-27T23:49:11.514Z,102153.75
2019-06-27T23:51:41.368Z,102141.20
2019-06-27T23:54:10.724Z,102136.47
2019-06-27T23:56:40.029Z,102140.11
2019-06-27T23:59:09.387Z,102133.09
